createdAt,value
2024-04-10T09:06:31.802Z,204
2024-04-10T09:07:39.431Z,215
2024-04-10T09:08:46.428Z,202
2024-04-10T09:09:54.469Z,206
2024-04-10T09:11:02.511Z,206
2024-04-10T09:12:11.457Z,217
2024-04-10T09:13:19.498Z,207
2024-04-10T09:14:28.444Z,198
2024-04-10T09:15:36.487Z,191
2024-04-10T09:16:45.434Z,195
2024-04-10T09:17:53.475Z,199
2024-04-10T09:19:01.517Z,187
2024-04-10T09:20:10.462Z,175
2024-04-10T09:21:18.505Z,177
2024-04-10T09:22:27.451Z,199
2024-04-10T09:23:35.493Z,211
2024-04-10T09:24:44.441Z,222
2024-04-10T09:25:52.483Z,202
2024-04-10T09:27:01.432Z,206
2024-04-10T09:28:09.473Z,199
2024-04-10T09:29:17.515Z,238
2024-04-10T09:30:26.460Z,289
2024-04-10T09:31:34.503Z,268
2024-04-10T09:32:43.450Z,238
2024-04-10T09:33:51.491Z,208
2024-04-10T09:35:00.435Z,203
2024-04-10T09:36:08.478Z,238
2024-04-10T09:37:17.425Z,263
2024-04-10T09:38:25.468Z,283
2024-04-10T09:39:33.509Z,284
2024-04-10T09:40:42.453Z,290
2024-04-10T09:41:50.497Z,283
2024-04-10T09:42:59.444Z,274
2024-04-10T09:44:07.488Z,281
2024-04-10T09:45:16.433Z,271
2024-04-10T09:46:24.477Z,252
2024-04-10T09:47:33.424Z,258
2024-04-10T09:48:41.467Z,270
2024-04-10T09:49:49.509Z,272
2024-04-10T09:50:58.453Z,278
2024-04-10T09:52:06.495Z,290
2024-04-10T09:53:15.441Z,296
2024-04-10T09:54:23.483Z,302
2024-04-10T09:55:32.432Z,289
2024-04-10T09:56:40.473Z,284
2024-04-10T09:57:48.515Z,289
2024-04-10T09:58:57.462Z,281
2024-04-10T10:00:05.504Z,285
2024-04-10T10:01:14.449Z,302
2024-04-10T10:02:22.492Z,293
2024-04-10T10:03:31.438Z,284
2024-04-10T10:04:39.480Z,277
2024-04-10T10:05:48.427Z,283
2024-04-10T10:06:56.469Z,283
2024-04-10T10:08:04.512Z,288
2024-04-10T10:09:13.459Z,304
2024-04-10T10:10:21.502Z,315
2024-04-10T10:11:30.448Z,337
2024-04-10T10:12:38.490Z,328
2024-04-10T10:13:47.438Z,341
2024-04-10T10:14:55.480Z,331
2024-04-10T10:16:04.424Z,357
2024-04-10T10:17:12.467Z,390
2024-04-10T10:18:20.509Z,380
2024-04-10T10:19:29.454Z,368
2024-04-10T10:20:37.498Z,332
2024-04-10T10:21:46.446Z,295
2024-04-10T10:22:54.490Z,314
2024-04-10T10:24:03.438Z,312
2024-04-10T10:25:11.480Z,271
2024-04-10T10:26:20.425Z,285
2024-04-10T10:27:28.468Z,294
2024-04-10T10:28:36.511Z,312
2024-04-10T10:29:45.458Z,317
2024-04-10T10:30:53.501Z,295
2024-04-10T10:32:02.447Z,274
2024-04-10T10:33:10.490Z,251
2024-04-10T10:34:19.440Z,239
2024-04-10T10:35:27.483Z,246
2024-04-10T10:36:36.430Z,273
2024-04-10T10:37:44.472Z,271
2024-04-10T10:38:52.515Z,267
2024-04-10T10:40:01.463Z,276
2024-04-10T10:41:09.507Z,280
2024-04-10T10:42:18.453Z,259
2024-04-10T10:43:26.495Z,242
2024-04-10T10:44:35.442Z,233
2024-04-10T10:45:43.485Z,220
2024-04-10T10:46:52.430Z,212
2024-04-10T10:48:00.471Z,212
2024-04-10T10:49:08.513Z,210
2024-04-10T10:50:17.458Z,196
2024-04-10T10:51:25.499Z,196
2024-04-10T10:52:34.447Z,202
2024-04-10T10:53:42.490Z,207
2024-04-10T10:54:51.434Z,218
2024-04-10T10:55:59.476Z,220
2024-04-10T10:57:08.421Z,212
2024-04-10T10:58:16.463Z,204
2024-04-10T10:59:24.505Z,208
2024-04-10T11:00:33.450Z,212
2024-04-10T11:01:41.492Z,222
2024-04-10T11:02:50.435Z,224
2024-04-10T11:03:58.477Z,221
2024-04-10T11:05:07.423Z,221
2024-04-10T11:06:15.466Z,227
2024-04-10T11:07:23.507Z,236
2024-04-10T11:08:32.453Z,229
2024-04-10T11:09:40.494Z,220
2024-04-10T11:10:49.440Z,234
2024-04-10T11:11:57.483Z,234
2024-04-10T11:13:06.432Z,238
2024-04-10T11:14:14.473Z,258
2024-04-10T11:15:22.515Z,286
2024-04-10T11:16:31.460Z,305
2024-04-10T11:17:39.503Z,323
2024-04-10T11:18:48.450Z,328
2024-04-10T11:19:56.492Z,323
2024-04-10T11:21:05.437Z,312
2024-04-10T11:22:13.480Z,294
2024-04-10T11:23:22.427Z,304
2024-04-10T11:24:30.471Z,307
2024-04-10T11:25:38.513Z,316
2024-04-10T11:26:47.459Z,321
2024-04-10T11:27:55.501Z,307
2024-04-10T11:29:04.447Z,298
2024-04-10T11:30:12.490Z,278
2024-04-10T11:31:21.439Z,274
2024-04-10T11:32:29.483Z,262
2024-04-10T11:33:38.431Z,247
2024-04-10T11:34:46.474Z,264
2024-04-10T11:35:55.420Z,240
2024-04-10T11:37:03.462Z,225
2024-04-10T11:38:11.506Z,221
2024-04-10T11:39:20.451Z,223
2024-04-10T11:40:28.495Z,225
2024-04-10T11:41:37.441Z,234
2024-04-10T11:42:45.486Z,253
2024-04-10T11:43:54.431Z,265
2024-04-10T11:45:02.473Z,269
2024-04-10T11:46:10.516Z,284
2024-04-10T11:47:19.462Z,307
2024-04-10T11:48:27.505Z,319
2024-04-10T11:49:36.452Z,334
2024-04-10T11:50:44.496Z,341
2024-04-10T11:51:53.441Z,364
2024-04-10T11:53:01.484Z,367
2024-04-10T11:54:10.429Z,345
2024-04-10T11:55:18.473Z,317
2024-04-10T11:56:26.515Z,343
2024-04-10T11:57:35.461Z,201
2024-04-10T11:58:43.505Z,199
2024-04-10T11:59:52.451Z,194
2024-04-10T12:01:00.495Z,180
2024-04-10T12:02:09.443Z,177
2024-04-10T12:03:17.486Z,182
2024-04-10T12:04:26.433Z,172
2024-04-10T12:05:34.474Z,157
2024-04-10T12:06:42.517Z,150
2024-04-10T12:07:51.462Z,147
2024-04-10T12:08:59.503Z,141
2024-04-10T12:10:08.450Z,135
2024-04-10T12:11:16.494Z,138
2024-04-10T12:12:25.444Z,151
2024-04-10T12:13:33.487Z,169
2024-04-10T12:14:42.433Z,174
2024-04-10T12:15:50.476Z,172
2024-04-10T12:16:59.422Z,157
2024-04-10T12:18:07.465Z,147
2024-04-10T12:19:15.508Z,144
2024-04-10T12:20:24.455Z,146
2024-04-10T12:21:32.497Z,154
2024-04-10T12:22:41.441Z,152
2024-04-10T12:23:49.483Z,147
2024-04-10T12:24:58.430Z,146
2024-04-10T12:26:06.470Z,164
2024-04-10T12:27:14.512Z,173
2024-04-10T12:28:23.458Z,180
2024-04-10T12:29:31.500Z,181
2024-04-10T12:30:40.446Z,200
2024-04-10T12:31:48.491Z,195
2024-04-10T12:32:57.437Z,196
2024-04-10T12:34:05.479Z,203
2024-04-10T12:35:14.426Z,211
2024-04-10T12:36:22.470Z,226
2024-04-10T12:37:30.513Z,254
2024-04-10T12:38:39.463Z,251
2024-04-10T12:39:47.505Z,212
2024-04-10T12:40:56.449Z,172
2024-04-10T12:42:04.493Z,151
2024-04-10T12:43:13.443Z,135
2024-04-10T12:44:21.484Z,129
2024-04-10T12:45:30.430Z,136
2024-04-10T12:46:38.473Z,138
2024-04-10T12:47:46.514Z,132
2024-04-10T12:48:55.459Z,137
2024-04-10T12:50:03.501Z,156
2024-04-10T12:51:12.448Z,158
2024-04-10T12:52:20.492Z,153
2024-04-10T12:53:29.437Z,146
2024-04-10T12:54:37.479Z,131
2024-04-10T12:55:46.428Z,147
2024-04-10T12:56:54.470Z,148
2024-04-10T12:58:02.512Z,165
2024-04-10T12:59:11.461Z,163
2024-04-10T13:00:19.503Z,166
2024-04-10T13:01:28.450Z,154
2024-04-10T13:02:36.492Z,144
2024-04-10T13:03:45.438Z,140
2024-04-10T13:04:53.480Z,137
2024-04-10T13:06:02.424Z,136
2024-04-10T13:07:10.466Z,128
2024-04-10T13:08:18.508Z,130
2024-04-10T13:09:27.455Z,122
2024-04-10T13:10:35.497Z,132
2024-04-10T13:11:44.441Z,132
2024-04-10T13:12:52.483Z,144
2024-04-10T13:14:01.428Z,158
2024-04-10T13:15:09.470Z,165
2024-04-10T13:16:17.512Z,166
2024-04-10T13:17:26.460Z,166
2024-04-10T13:18:34.501Z,175
2024-04-10T13:19:43.449Z,178
2024-04-10T13:20:51.491Z,184
2024-04-10T13:22:00.438Z,190
2024-04-10T13:23:08.480Z,186
2024-04-10T13:24:17.428Z,180
2024-04-10T13:25:25.472Z,175
2024-04-10T13:26:33.514Z,160
2024-04-10T13:27:42.458Z,169
2024-04-10T13:28:50.500Z,174
2024-04-10T13:29:59.450Z,175
2024-04-10T13:31:07.494Z,169
2024-04-10T13:32:16.439Z,170
2024-04-10T13:33:24.481Z,179
2024-04-10T13:34:33.426Z,277
2024-04-10T13:35:41.468Z,311
2024-04-10T13:36:49.513Z,321
2024-04-10T13:37:58.457Z,323
2024-04-10T13:39:06.501Z,316
2024-04-10T13:40:15.448Z,317
2024-04-10T13:41:23.491Z,302
2024-04-10T13:42:32.437Z,293
2024-04-10T13:43:40.479Z,289
2024-04-10T13:44:49.426Z,293
2024-04-10T13:45:57.469Z,291
2024-04-10T13:47:05.513Z,298
2024-04-10T13:48:14.459Z,297
2024-04-10T13:49:22.503Z,297
2024-04-10T13:50:31.447Z,300
2024-04-10T13:51:39.490Z,297
2024-04-10T13:52:48.440Z,309
2024-04-10T13:53:56.482Z,312
2024-04-10T13:55:05.429Z,328
2024-04-10T13:56:13.473Z,322
2024-04-10T13:57:21.515Z,324
2024-04-10T13:58:30.461Z,316
2024-04-10T13:59:38.503Z,307
2024-04-10T14:00:47.449Z,319
2024-04-10T14:01:55.492Z,309
2024-04-10T14:03:04.438Z,317
2024-04-10T14:04:12.480Z,328
2024-04-10T14:05:21.428Z,307
2024-04-10T14:06:29.470Z,302
2024-04-10T14:07:37.513Z,303
2024-04-10T14:08:46.459Z,290
2024-04-10T14:09:54.501Z,288
2024-04-10T14:11:03.449Z,286
2024-04-10T14:12:11.491Z,292
2024-04-10T14:13:20.439Z,285
2024-04-10T14:14:28.480Z,276
2024-04-10T14:15:37.424Z,275
2024-04-10T14:16:45.467Z,297
2024-04-10T14:17:53.510Z,281
2024-04-10T14:19:02.457Z,274
2024-04-10T14:20:10.499Z,276
2024-04-10T14:21:19.445Z,262
2024-04-10T14:22:27.488Z,272
2024-04-10T14:23:36.434Z,277
2024-04-10T14:24:44.476Z,285
2024-04-10T14:25:53.421Z,255
2024-04-10T14:27:01.462Z,250
2024-04-10T14:28:09.504Z,258
2024-04-10T14:29:18.450Z,286
2024-04-10T14:30:26.493Z,297
2024-04-10T14:31:35.439Z,289
2024-04-10T14:32:43.481Z,281
2024-04-10T14:33:52.427Z,296
2024-04-10T14:35:00.470Z,287
2024-04-10T14:36:08.512Z,287
2024-04-10T14:37:17.464Z,289
2024-04-10T14:38:25.507Z,286
2024-04-10T14:39:34.459Z,273
2024-04-10T14:40:42.501Z,292
2024-04-10T14:41:51.449Z,259
2024-04-10T14:42:59.493Z,278
2024-04-10T14:44:08.440Z,282
2024-04-10T14:45:16.484Z,313
2024-04-10T14:46:25.431Z,291
2024-04-10T14:47:33.473Z,274
2024-04-10T14:48:41.517Z,280
2024-04-10T14:49:50.463Z,291
2024-04-10T14:50:58.504Z,275
2024-04-10T14:56:53.874Z,1314
2024-04-10T14:58:02.548Z,2382
2024-04-10T14:59:10.591Z,2406
2024-04-10T15:00:18.635Z,2256
2024-04-10T15:01:27.583Z,1826
2024-04-10T15:02:35.627Z,1648
2024-04-10T15:03:44.577Z,1213
2024-04-10T15:04:52.621Z,1106
2024-04-10T15:06:01.567Z,1100
2024-04-10T15:07:09.611Z,1590
2024-04-10T15:08:18.560Z,1892
2024-04-10T15:09:26.605Z,1762
2024-04-10T15:10:35.552Z,1504
2024-04-10T15:11:43.595Z,1409
2024-04-10T15:12:51.637Z,1418
2024-04-10T15:14:00.585Z,1487
2024-04-10T15:15:08.628Z,1554
2024-04-10T15:16:17.576Z,1677
2024-04-10T15:17:25.619Z,1693
2024-04-10T15:18:34.565Z,1724
2024-04-10T15:19:42.610Z,1669
2024-04-10T15:20:51.557Z,1663
2024-04-10T15:21:59.602Z,1633
2024-04-10T15:23:08.551Z,1438
2024-04-10T15:24:16.593Z,1250
2024-04-10T15:25:25.642Z,1229
2024-04-10T15:26:34.587Z,1284
2024-04-10T15:27:42.631Z,1274
2024-04-10T15:28:51.582Z,1249
2024-04-10T15:29:59.625Z,1243
2024-04-10T15:31:08.572Z,1246
2024-04-10T15:32:16.615Z,1300
2024-04-10T15:33:25.562Z,1327
2024-04-10T15:34:33.606Z,1338
2024-04-10T15:35:42.553Z,1355
2024-04-10T15:36:50.597Z,1380
2024-04-10T15:37:58.540Z,1393
2024-04-10T15:39:06.584Z,1422
2024-04-10T15:40:14.628Z,1397
2024-04-10T15:41:23.577Z,1369
2024-04-10T15:42:31.621Z,1456
2024-04-10T15:43:40.570Z,1493
2024-04-10T15:44:48.614Z,1442
2024-04-10T15:45:57.564Z,1364
2024-04-10T15:47:05.608Z,1223
2024-04-10T15:48:14.554Z,1095
2024-04-10T15:49:22.597Z,1025
2024-04-10T15:50:30.642Z,976
2024-04-10T15:51:39.587Z,953
2024-04-10T15:52:47.630Z,987
2024-04-10T15:53:56.578Z,1009
2024-04-10T15:55:04.621Z,1035
2024-04-10T15:56:13.568Z,1080
2024-04-10T15:57:21.612Z,1114
2024-04-10T15:58:30.560Z,1093
2024-04-10T15:59:38.604Z,1034
2024-04-10T16:00:47.551Z,924
2024-04-10T16:01:55.593Z,873
2024-04-10T16:03:03.635Z,902
2024-04-10T16:04:12.582Z,884
2024-04-10T16:05:20.625Z,869
2024-04-10T16:06:29.572Z,843
2024-04-10T16:07:37.614Z,826
2024-04-10T16:08:46.561Z,799
2024-04-10T16:09:54.605Z,755
2024-04-10T16:11:03.556Z,706
2024-04-10T16:12:11.600Z,687
2024-04-10T16:13:20.551Z,684
2024-04-10T16:14:28.594Z,675
2024-04-10T16:15:36.636Z,659
2024-04-10T16:16:45.583Z,643
2024-04-10T16:17:53.627Z,631
2024-04-10T16:19:02.577Z,620
2024-04-10T16:20:10.620Z,609
2024-04-10T16:21:19.567Z,593
2024-04-10T16:22:27.609Z,572
2024-04-10T16:23:36.556Z,557
2024-04-10T16:24:44.598Z,540
2024-04-10T16:25:52.541Z,554
2024-04-10T16:27:00.583Z,559
2024-04-10T16:28:08.627Z,554
2024-04-10T16:29:17.572Z,551
2024-04-10T16:30:25.614Z,547
2024-04-10T16:31:34.560Z,543
2024-04-10T16:32:42.604Z,540
2024-04-10T16:33:51.552Z,536
2024-04-10T16:34:59.595Z,531
2024-04-10T16:36:07.639Z,526
2024-04-10T16:37:16.588Z,521
2024-04-10T16:38:24.631Z,517
2024-04-10T16:39:33.579Z,497
2024-04-10T16:40:41.620Z,493
2024-04-10T16:41:50.570Z,488
2024-04-10T16:42:58.613Z,482
2024-04-10T16:44:07.558Z,476
2024-04-10T16:45:15.600Z,468
2024-04-10T16:46:24.648Z,466
2024-04-10T16:47:33.597Z,463
2024-04-10T16:48:41.639Z,458
2024-04-10T16:49:50.588Z,449
2024-04-10T16:50:58.631Z,434
2024-04-10T16:52:07.578Z,433
2024-04-10T16:53:15.619Z,430
2024-04-10T16:54:24.568Z,423
2024-04-10T16:55:32.611Z,417
2024-04-10T16:56:41.559Z,391
2024-04-10T16:57:49.601Z,387
2024-04-10T16:58:58.630Z,395
2024-04-10T17:00:07.578Z,377
2024-04-10T17:01:15.622Z,368
2024-04-10T17:02:24.569Z,378
2024-04-10T17:03:32.612Z,375
2024-04-10T17:04:41.559Z,370
2024-04-10T17:05:49.603Z,363
2024-04-10T17:06:58.551Z,359
2024-04-10T17:08:06.594Z,358
2024-04-10T17:09:14.635Z,358
2024-04-10T17:10:23.583Z,355
2024-04-10T17:11:31.625Z,348
2024-04-10T17:12:40.572Z,341
2024-04-10T17:13:48.616Z,336
2024-04-10T17:14:57.561Z,336
2024-04-10T17:16:05.605Z,332
2024-04-10T17:17:14.551Z,329
2024-04-10T17:18:22.593Z,334
2024-04-10T17:19:30.635Z,343
2024-04-10T17:20:39.583Z,338
2024-04-10T17:21:47.627Z,329
2024-04-10T17:22:56.573Z,323
2024-04-10T17:24:04.615Z,318
2024-04-10T17:25:13.562Z,321
2024-04-10T17:26:21.605Z,320
2024-04-10T17:27:30.551Z,309
2024-04-10T17:28:38.593Z,287
2024-04-10T17:29:46.635Z,275
2024-04-10T17:30:55.581Z,266
2024-04-10T17:32:03.623Z,259
2024-04-10T17:33:12.571Z,251
2024-04-10T17:34:20.614Z,237
2024-04-10T17:35:29.561Z,228
2024-04-10T17:36:37.603Z,221
2024-04-10T17:37:46.548Z,217
2024-04-10T17:38:54.592Z,212
2024-04-10T17:40:02.634Z,202
2024-04-10T17:41:11.581Z,191
2024-04-10T17:42:19.625Z,181
2024-04-10T17:43:28.575Z,173
2024-04-10T17:44:36.617Z,167
2024-04-10T17:45:45.562Z,159
2024-04-10T17:46:53.605Z,152
2024-04-10T17:48:02.553Z,146
2024-04-10T17:49:10.595Z,139
2024-04-10T17:50:18.637Z,134
2024-04-10T17:51:27.585Z,127
2024-04-10T17:52:35.626Z,121
2024-04-10T17:53:44.571Z,115
2024-04-10T17:54:52.613Z,111
2024-04-10T17:56:01.558Z,103
2024-04-10T17:57:09.600Z,97
2024-04-10T17:58:18.547Z,90
2024-04-10T17:59:26.589Z,85
2024-04-10T18:00:34.631Z,79
2024-04-10T18:01:43.577Z,74
2024-04-10T18:02:51.617Z,68
2024-04-10T18:04:00.563Z,63
2024-04-10T18:05:08.603Z,57
2024-04-10T18:06:17.648Z,54
2024-04-10T18:07:26.595Z,46
2024-04-10T18:08:34.635Z,43
2024-04-10T18:09:43.580Z,38
2024-04-10T18:10:51.621Z,34
2024-04-10T18:12:00.568Z,29
2024-04-10T18:13:08.610Z,27
2024-04-10T18:14:17.554Z,22
2024-04-10T18:15:25.596Z,19
2024-04-10T18:16:33.637Z,16
2024-04-10T18:17:42.583Z,13
2024-04-10T18:18:50.624Z,11
2024-04-10T18:19:59.571Z,9
2024-04-10T18:21:07.611Z,9
2024-04-10T18:22:16.555Z,6
2024-04-10T18:23:24.594Z,5
2024-04-10T18:24:32.635Z,4
2024-04-10T18:25:41.580Z,3
2024-04-10T18:26:49.619Z,3
2024-04-10T18:27:58.565Z,2
2024-04-10T18:29:06.606Z,2
2024-04-10T18:30:14.647Z,1
2024-04-10T18:31:23.602Z,1
2024-04-10T18:32:31.542Z,1
2024-04-10T18:33:40.650Z,0
2024-04-10T18:34:48.704Z,0
2024-04-10T18:35:57.619Z,0
2024-04-10T18:37:05.670Z,0
2024-04-10T18:38:14.687Z,0
2024-04-10T18:39:22.632Z,0
2024-04-10T18:40:31.639Z,0
2024-04-10T18:41:39.682Z,0
2024-04-10T18:42:48.690Z,0
2024-04-10T18:43:56.631Z,0
2024-04-10T18:45:05.636Z,0
2024-04-10T18:46:13.683Z,0
2024-04-10T18:47:22.690Z,0
2024-04-10T18:48:30.635Z,0
2024-04-10T18:49:39.641Z,0
2024-04-10T18:50:47.685Z,0
2024-04-10T18:51:56.692Z,0
2024-04-10T18:53:04.636Z,0
2024-04-10T18:54:13.644Z,0
2024-04-10T18:55:21.687Z,0
2024-04-10T18:56:30.695Z,0
2024-04-10T18:57:38.637Z,0
2024-04-10T18:58:47.644Z,0
2024-04-10T18:59:55.688Z,0
2024-04-10T19:01:04.694Z,0
2024-04-10T19:02:12.641Z,0
2024-04-10T19:03:21.647Z,0
2024-04-10T19:04:29.693Z,0
2024-04-10T19:05:38.598Z,0
2024-04-10T19:06:46.639Z,0
2024-04-10T19:07:55.648Z,0
2024-04-10T19:09:03.690Z,0
2024-04-10T19:10:12.698Z,0
2024-04-10T19:11:20.641Z,0
2024-04-10T19:12:29.649Z,0
2024-04-10T19:13:37.692Z,0
2024-04-10T19:14:46.701Z,0
2024-04-10T19:15:54.643Z,0
2024-04-10T19:17:03.650Z,0
2024-04-10T19:18:11.694Z,0
2024-04-10T19:19:20.700Z,0
2024-04-10T19:20:28.645Z,0
2024-04-10T19:21:37.651Z,0
2024-04-10T19:22:45.696Z,0
2024-04-10T19:23:54.602Z,0
2024-04-10T19:25:02.646Z,0
2024-04-10T19:26:11.653Z,0
2024-04-10T19:27:19.697Z,0
2024-04-10T19:28:28.602Z,0
2024-04-10T19:29:36.647Z,0
2024-04-10T19:30:45.654Z,0
2024-04-10T19:31:53.698Z,0
2024-04-10T19:33:02.605Z,0
2024-04-10T19:34:10.649Z,0
2024-04-10T19:35:19.656Z,0
2024-04-10T19:36:27.700Z,0
2024-04-10T19:37:36.607Z,0
2024-04-10T19:38:44.653Z,0
2024-04-10T19:39:53.662Z,0
2024-04-10T19:41:01.604Z,0
2024-04-10T19:42:10.610Z,0
2024-04-10T19:43:18.652Z,0
2024-04-10T19:44:27.658Z,0
2024-04-10T19:45:35.604Z,0
2024-04-10T19:46:44.611Z,0
2024-04-10T19:47:52.656Z,0
2024-04-10T19:49:01.664Z,0
2024-04-10T19:50:09.608Z,0
2024-04-10T19:51:18.615Z,0
2024-04-10T19:52:26.658Z,0
2024-04-10T19:53:35.664Z,0
2024-04-10T19:54:43.611Z,0
2024-04-10T19:55:52.619Z,0
2024-04-10T19:57:00.662Z,0
2024-04-10T19:58:09.668Z,0
2024-04-10T19:59:17.611Z,0
2024-04-10T20:00:26.617Z,0
2024-04-10T20:01:34.663Z,0
2024-04-10T20:02:43.672Z,0
2024-04-10T20:03:51.616Z,0
2024-04-10T20:05:00.625Z,0
2024-04-10T20:06:08.666Z,0
2024-04-10T20:07:17.673Z,0
2024-04-10T20:08:25.614Z,0
2024-04-10T20:09:34.621Z,0
2024-04-10T20:10:42.666Z,0
2024-04-10T20:11:51.673Z,0
2024-04-10T20:12:59.616Z,0
2024-04-10T20:14:08.623Z,0
2024-04-10T20:15:16.666Z,0
2024-04-10T20:16:25.674Z,0
2024-04-10T20:17:33.614Z,0
2024-04-10T20:18:42.622Z,0
2024-04-10T20:19:50.666Z,0
2024-04-10T20:20:59.672Z,0
2024-04-10T20:22:07.615Z,0
2024-04-10T20:23:16.623Z,0
2024-04-10T20:24:24.670Z,0
2024-04-10T20:25:33.676Z,0
2024-04-10T20:26:41.617Z,0
2024-04-10T20:27:50.626Z,0
2024-04-10T20:28:58.666Z,0
2024-04-10T20:30:07.675Z,0
2024-04-10T20:31:15.617Z,0
2024-04-10T20:32:24.623Z,0
2024-04-10T20:33:32.666Z,0
2024-04-10T20:34:41.673Z,0
2024-04-10T20:35:49.618Z,0
2024-04-10T20:36:58.627Z,0
2024-04-10T20:38:06.673Z,0
2024-04-10T20:39:15.680Z,0
2024-04-10T20:40:23.623Z,0
2024-04-10T20:41:32.630Z,0
2024-04-10T20:42:40.673Z,0
2024-04-10T20:43:49.682Z,0
2024-04-10T20:44:57.625Z,0
2024-04-10T20:46:06.632Z,0
2024-04-10T20:47:14.677Z,0
2024-04-10T20:48:23.685Z,0
2024-04-10T20:49:31.624Z,0
2024-04-10T20:50:40.631Z,0
2024-04-10T20:51:48.673Z,0
2024-04-10T20:52:57.680Z,0
2024-04-10T20:54:05.624Z,0
2024-04-10T20:55:14.632Z,0
2024-04-10T20:56:22.674Z,0
2024-04-10T20:57:31.680Z,0
2024-04-10T20:58:39.623Z,0
2024-04-10T20:59:48.629Z,0
2024-04-10T21:00:56.673Z,0
2024-04-10T21:02:05.680Z,0
2024-04-10T21:03:13.626Z,0
2024-04-10T21:04:22.633Z,0
2024-04-10T21:05:30.675Z,0
2024-04-10T21:06:39.684Z,0
2024-04-10T21:07:47.626Z,0
2024-04-10T21:08:56.633Z,0
2024-04-10T21:10:04.678Z,0
2024-04-10T21:11:13.684Z,0
2024-04-10T21:12:21.627Z,0
2024-04-10T21:13:30.633Z,0
2024-04-10T21:14:38.678Z,0
2024-04-10T21:15:47.684Z,0
2024-04-10T21:16:55.629Z,0
2024-04-10T21:18:04.636Z,0
2024-04-10T21:19:12.679Z,0
2024-04-10T21:20:21.689Z,0
2024-04-10T21:21:29.632Z,0
2024-04-10T21:22:38.638Z,0
2024-04-10T21:23:46.681Z,0
2024-04-10T21:24:55.687Z,0
2024-04-10T21:26:03.630Z,0
2024-04-10T21:27:12.638Z,0
2024-04-10T21:28:20.681Z,0
2024-04-10T21:29:29.688Z,0
2024-04-10T21:30:37.629Z,0
2024-04-10T21:31:46.636Z,0
2024-04-10T21:32:54.681Z,0
2024-04-10T21:34:03.688Z,0
2024-04-10T21:35:11.630Z,0
2024-04-10T21:36:20.638Z,0
2024-04-10T21:37:28.681Z,0
2024-04-10T21:38:37.688Z,0
2024-04-10T21:39:45.631Z,0
2024-04-10T21:40:54.638Z,0
2024-04-10T21:42:02.682Z,0
2024-04-10T21:43:11.688Z,0
2024-04-10T21:44:19.633Z,0
2024-04-10T21:45:28.640Z,0
2024-04-10T21:46:36.685Z,0
2024-04-10T21:47:45.692Z,0
2024-04-10T21:48:53.635Z,0
2024-04-10T21:50:02.644Z,0
2024-04-10T21:51:10.687Z,0
2024-04-10T21:52:19.694Z,0
2024-04-10T21:53:27.636Z,0
2024-04-10T21:54:36.642Z,0
2024-04-10T21:55:44.685Z,0
2024-04-10T21:56:53.693Z,0
2024-04-10T21:58:01.635Z,0
2024-04-10T21:59:10.644Z,0
2024-04-10T22:00:18.685Z,0
2024-04-10T22:01:27.692Z,0
2024-04-10T22:02:35.641Z,0
2024-04-10T22:03:44.650Z,0
2024-04-10T22:04:52.691Z,0
2024-04-10T22:06:01.697Z,0
2024-04-10T22:07:09.641Z,0
2024-04-10T22:08:18.647Z,0
2024-04-10T22:09:26.691Z,0
2024-04-10T22:10:35.697Z,0
2024-04-10T22:11:43.640Z,0
2024-04-10T22:12:52.648Z,0
2024-04-10T22:14:00.691Z,0
2024-04-10T22:15:09.697Z,0
2024-04-10T22:16:17.643Z,0
2024-04-10T22:17:26.649Z,0
2024-04-10T22:18:34.691Z,0
2024-04-10T22:19:43.697Z,0
2024-04-10T22:20:51.641Z,0
2024-04-10T22:22:00.648Z,0
2024-04-10T22:23:08.594Z,0
2024-04-10T22:24:17.703Z,0
2024-04-10T22:25:25.646Z,0
2024-04-10T22:26:34.652Z,0
2024-04-10T22:27:42.695Z,0
2024-04-10T22:28:51.702Z,0
2024-04-10T22:29:59.645Z,0
2024-04-10T22:31:08.655Z,0
2024-04-10T22:32:16.696Z,0
2024-04-10T22:33:25.604Z,0
2024-04-10T22:34:33.649Z,0
2024-04-10T22:35:42.656Z,0
2024-04-10T22:36:50.598Z,0
2024-04-10T22:37:59.605Z,0
2024-04-10T22:39:07.654Z,0
2024-04-10T22:40:16.659Z,0
2024-04-10T22:41:24.605Z,0
2024-04-10T22:42:33.613Z,0
2024-04-10T22:43:41.656Z,0
2024-04-10T22:44:50.665Z,0
2024-04-10T22:45:58.607Z,0
2024-04-10T22:47:07.616Z,0
2024-04-10T22:48:15.660Z,0
2024-04-10T22:49:24.668Z,0
2024-04-10T22:50:32.612Z,0
2024-04-10T22:51:41.620Z,0
2024-04-10T22:52:49.663Z,0
2024-04-10T22:53:58.672Z,0
2024-04-10T22:55:06.612Z,0
2024-04-10T22:56:15.620Z,0
2024-04-10T22:57:23.662Z,0
2024-04-10T22:58:32.671Z,0
2024-04-10T22:59:40.612Z,0
2024-04-10T23:00:49.621Z,0
2024-04-10T23:01:57.662Z,0
2024-04-10T23:03:06.672Z,0
2024-04-10T23:04:14.612Z,0
2024-04-10T23:05:23.621Z,0
2024-04-10T23:06:31.662Z,0
2024-04-10T23:07:40.670Z,0
2024-04-10T23:08:48.613Z,0
2024-04-10T23:09:57.621Z,0
2024-04-10T23:11:05.666Z,0
2024-04-10T23:12:14.673Z,0
2024-04-10T23:13:22.618Z,0
2024-04-10T23:14:31.625Z,0
2024-04-10T23:15:39.669Z,0
2024-04-10T23:16:48.677Z,0
2024-04-10T23:17:56.618Z,0
2024-04-10T23:19:05.624Z,0
2024-04-10T23:20:13.669Z,0
2024-04-10T23:21:22.675Z,0
2024-04-10T23:22:30.617Z,0
2024-04-10T23:23:39.623Z,0
2024-04-10T23:24:47.666Z,0
2024-04-10T23:25:56.673Z,0
2024-04-10T23:27:04.619Z,0
2024-04-10T23:28:13.627Z,0
2024-04-10T23:29:21.673Z,0
2024-04-10T23:30:30.679Z,0
2024-04-10T23:31:38.622Z,0
2024-04-10T23:32:47.629Z,0
2024-04-10T23:33:55.677Z,0
2024-04-10T23:35:04.686Z,0
2024-04-10T23:36:12.629Z,0
2024-04-10T23:37:21.636Z,0
2024-04-10T23:38:29.679Z,0
2024-04-10T23:39:38.688Z,0
2024-04-10T23:40:46.632Z,0
2024-04-10T23:41:55.640Z,0
2024-04-10T23:43:03.683Z,0
2024-04-10T23:44:12.689Z,0
2024-04-10T23:45:20.633Z,0
2024-04-10T23:46:29.640Z,0
2024-04-10T23:47:37.684Z,0
2024-04-10T23:48:46.693Z,0
2024-04-10T23:49:54.637Z,0
2024-04-10T23:51:03.643Z,0
2024-04-10T23:52:11.689Z,0
2024-04-10T23:53:20.596Z,0
2024-04-10T23:54:28.639Z,0
2024-04-10T23:55:37.646Z,0
2024-04-10T23:56:45.688Z,0
2024-04-10T23:57:54.696Z,0
2024-04-10T23:59:02.638Z,0
